createdAt,value
2016-09-29T00:00:09.093Z,96.1
2016-09-29T00:00:19.090Z,95.7
2016-09-29T00:00:29.085Z,95.7
2016-09-29T00:00:39.080Z,95.9
2016-09-29T00:00:49.076Z,95.9
2016-09-29T00:00:59.070Z,95.9
2016-09-29T00:01:09.065Z,95.8
2016-09-29T00:01:19.060Z,95.8
2016-09-29T00:01:29.057Z,95.9
2016-09-29T00:01:39.051Z,95.9
2016-09-29T00:01:49.045Z,95.6
2016-09-29T00:01:59.041Z,95.7
2016-09-29T00:02:09.035Z,95.8
2016-09-29T00:02:19.033Z,95.8
2016-09-29T00:02:29.028Z,95.8
2016-09-29T00:02:39.022Z,95.6
2016-09-29T00:02:49.018Z,95.9
2016-09-29T00:02:59.014Z,95.9
2016-09-29T00:03:09.007Z,95.4
2016-09-29T00:03:19.004Z,95.7
2016-09-29T00:03:28.998Z,95.6
2016-09-29T00:03:38.994Z,96
2016-09-29T00:03:48.987Z,95.6
2016-09-29T00:03:58.985Z,95.6
2016-09-29T00:04:08.980Z,95.6
2016-09-29T00:04:18.978Z,95.7
2016-09-29T00:04:28.970Z,95.6
2016-09-29T00:04:38.966Z,95.8
2016-09-29T00:04:48.960Z,95.5
2016-09-29T00:04:58.955Z,95.4
2016-09-29T00:05:08.948Z,95.2
2016-09-29T00:05:18.945Z,95.3
2016-09-29T00:05:28.942Z,95.2
2016-09-29T00:05:38.935Z,95.1
2016-09-29T00:05:48.932Z,95.2
2016-09-29T00:05:58.926Z,95.3
2016-09-29T00:06:08.926Z,95.5
2016-09-29T00:06:18.917Z,95.2
2016-09-29T00:06:28.911Z,95.5
2016-09-29T00:06:38.908Z,95.5
2016-09-29T00:06:48.902Z,95.6
2016-09-29T00:06:58.897Z,95.8
2016-09-29T00:07:08.893Z,95.6
2016-09-29T00:07:18.889Z,95.6
2016-09-29T00:07:28.881Z,95.6
2016-09-29T00:07:38.878Z,95.6
2016-09-29T00:07:48.873Z,95.7
2016-09-29T00:07:58.869Z,96
2016-09-29T00:08:08.864Z,95.7
2016-09-29T00:08:18.858Z,95.6
2016-09-29T00:08:28.854Z,95.7
2016-09-29T00:08:38.851Z,95.7
2016-09-29T00:08:48.844Z,95.2
2016-09-29T00:08:58.840Z,95.4
2016-09-29T00:09:08.835Z,95.3
2016-09-29T00:09:18.830Z,95.4
2016-09-29T00:09:28.826Z,95.8
2016-09-29T00:09:38.819Z,95.8
2016-09-29T00:09:48.817Z,95.6
2016-09-29T00:09:58.811Z,95.6
2016-09-29T00:10:08.805Z,95.6
2016-09-29T00:10:18.802Z,95.5
2016-09-29T00:10:28.796Z,95.7
2016-09-29T00:10:38.792Z,95.7
2016-09-29T00:10:48.788Z,96
2016-09-29T00:10:58.783Z,95.8
2016-09-29T00:11:08.779Z,95.9
2016-09-29T00:11:18.773Z,95.9
2016-09-29T00:11:28.768Z,95.9
2016-09-29T00:11:38.763Z,95.7
2016-09-29T00:11:48.758Z,95.6
2016-09-29T00:11:58.754Z,95.6
2016-09-29T00:12:08.749Z,95.5
2016-09-29T00:12:18.744Z,95.5
2016-09-29T00:12:28.740Z,95.3
2016-09-29T00:12:38.740Z,95.6
2016-09-29T00:12:48.730Z,95.4
2016-09-29T00:12:58.726Z,95.3
2016-09-29T00:13:08.721Z,95.6
2016-09-29T00:13:18.716Z,95.6
2016-09-29T00:13:28.712Z,95.5
2016-09-29T00:13:38.706Z,95.5
2016-09-29T00:13:48.701Z,95.6
2016-09-29T00:13:58.698Z,95.6
2016-09-29T00:14:08.692Z,95.6
2016-09-29T00:14:18.687Z,95.4
2016-09-29T00:14:28.682Z,95.1
2016-09-29T00:14:38.678Z,95.2
2016-09-29T00:14:48.673Z,95.8
2016-09-29T00:14:58.667Z,95.6
2016-09-29T00:15:08.662Z,95.8
2016-09-29T00:15:18.658Z,95.5
2016-09-29T00:15:28.652Z,95.3
2016-09-29T00:15:38.650Z,95.3
2016-09-29T00:15:48.643Z,95.1
2016-09-29T00:15:58.639Z,95.6
2016-09-29T00:16:08.634Z,95.6
2016-09-29T00:16:18.630Z,95.5
2016-09-29T00:16:28.624Z,95.5
2016-09-29T00:16:38.619Z,95.4
2016-09-29T00:16:48.616Z,95.4
2016-09-29T00:16:58.611Z,95.4
2016-09-29T00:17:08.605Z,95.3
2016-09-29T00:17:18.609Z,95.6
2016-09-29T00:17:28.597Z,95.4
2016-09-29T00:17:38.590Z,95.9
2016-09-29T00:17:48.586Z,95.7
2016-09-29T00:17:58.582Z,95.7
2016-09-29T00:18:08.576Z,95.7
2016-09-29T00:18:18.573Z,95.7
2016-09-29T00:18:28.568Z,95.7
2016-09-29T00:18:38.562Z,95.6
2016-09-29T00:18:48.559Z,95.6
2016-09-29T00:18:58.551Z,94.6
2016-09-29T00:19:08.548Z,94.7
2016-09-29T00:19:18.543Z,94.8
2016-09-29T00:19:28.537Z,94.7
2016-09-29T00:19:38.532Z,94.8
2016-09-29T00:19:48.528Z,94.6
2016-09-29T00:19:58.524Z,95.2
2016-09-29T00:20:08.519Z,95.7
2016-09-29T00:20:18.515Z,95.6
2016-09-29T00:20:28.509Z,95.8
2016-09-29T00:20:38.505Z,95.7
2016-09-29T00:20:48.500Z,95.7
2016-09-29T00:20:58.502Z,95.7
2016-09-29T00:21:08.488Z,95.7
2016-09-29T00:21:18.488Z,95.6
2016-09-29T00:21:28.480Z,95.6
2016-09-29T00:21:38.475Z,95.6
2016-09-29T00:21:48.472Z,95.2
2016-09-29T00:21:58.466Z,95.4
2016-09-29T00:22:08.461Z,95.4
2016-09-29T00:22:18.457Z,95.6
2016-09-29T00:22:28.451Z,95.3
2016-09-29T00:22:38.447Z,95.3
2016-09-29T00:22:48.448Z,95.6
2016-09-29T00:22:58.437Z,95.6
2016-09-29T00:23:08.432Z,95.7
2016-09-29T00:23:18.429Z,95.4
2016-09-29T00:23:28.757Z,95.2
2016-09-29T00:23:38.419Z,95.6
2016-09-29T00:23:48.412Z,95.5
2016-09-29T00:23:58.408Z,95.6
2016-09-29T00:24:08.405Z,95.2
2016-09-29T00:24:18.399Z,95.6
2016-09-29T00:24:28.395Z,95.9
2016-09-29T00:24:38.388Z,95.2
2016-09-29T00:24:48.384Z,95.3
2016-09-29T00:24:58.380Z,95.5
2016-09-29T00:25:08.375Z,95.3
2016-09-29T00:25:18.372Z,94.6
2016-09-29T00:25:28.366Z,94.7
2016-09-29T00:25:38.360Z,95
2016-09-29T00:25:48.356Z,94.8
2016-09-29T00:25:58.352Z,95.2
2016-09-29T00:26:08.346Z,95
2016-09-29T00:26:18.341Z,95.2
2016-09-29T00:26:28.336Z,94.9
2016-09-29T00:26:38.333Z,94.9
2016-09-29T00:26:48.327Z,94.9
2016-09-29T00:26:58.324Z,95.2
2016-09-29T00:27:08.321Z,94.6
2016-09-29T00:27:18.314Z,94.7
2016-09-29T00:27:28.307Z,94.7
2016-09-29T00:27:38.304Z,94.6
2016-09-29T00:27:48.301Z,94.8
2016-09-29T00:27:58.299Z,94.8
2016-09-29T00:28:08.290Z,94.9
2016-09-29T00:28:18.284Z,94.6
2016-09-29T00:28:28.281Z,94.4
2016-09-29T00:28:38.275Z,94.4
2016-09-29T00:28:48.269Z,94.4
2016-09-29T00:28:58.264Z,94.3
2016-09-29T00:29:08.594Z,94.3
2016-09-29T00:29:18.255Z,94.3
2016-09-29T00:29:28.249Z,94.3
2016-09-29T00:29:38.246Z,94.2
2016-09-29T00:29:48.242Z,94.3
2016-09-29T00:29:58.238Z,94.2
2016-09-29T00:30:08.231Z,94.6
2016-09-29T00:30:18.228Z,94.2
2016-09-29T00:30:28.221Z,94.3
2016-09-29T00:30:38.216Z,94.3
2016-09-29T00:30:48.213Z,94.4
2016-09-29T00:30:58.206Z,94.3
2016-09-29T00:31:08.202Z,94.3
2016-09-29T00:31:18.199Z,94.3
2016-09-29T00:31:28.193Z,94.3
2016-09-29T00:31:38.193Z,94.9
2016-09-29T00:31:48.183Z,94.8
2016-09-29T00:31:58.178Z,95
2016-09-29T00:32:08.174Z,94.9
2016-09-29T00:32:18.168Z,94.8
2016-09-29T00:32:28.164Z,94.6
2016-09-29T00:32:38.159Z,94.3
2016-09-29T00:32:48.154Z,94.3
2016-09-29T00:32:58.150Z,94.4
2016-09-29T00:33:08.146Z,94.3
2016-09-29T00:33:18.141Z,94.3
2016-09-29T00:33:28.136Z,94.3
2016-09-29T00:33:38.130Z,94.3
2016-09-29T00:33:48.127Z,94.3
2016-09-29T00:33:58.122Z,94.4
2016-09-29T00:34:08.116Z,94.6
2016-09-29T00:34:18.112Z,94.3
2016-09-29T00:34:28.105Z,94.6
2016-09-29T00:34:38.104Z,94.3
2016-09-29T00:34:48.113Z,94.4
2016-09-29T00:34:58.092Z,94.3
2016-09-29T00:35:08.088Z,94.2
2016-09-29T00:35:18.083Z,94.4
2016-09-29T00:35:28.078Z,94.3
2016-09-29T00:35:38.073Z,94.5
2016-09-29T00:35:48.068Z,94.3
2016-09-29T00:35:58.064Z,94.4
2016-09-29T00:36:08.058Z,95
2016-09-29T00:36:18.054Z,95
2016-09-29T00:36:28.049Z,94.9
2016-09-29T00:36:38.045Z,94.3
2016-09-29T00:36:48.041Z,94.4
2016-09-29T00:36:58.035Z,94.3
2016-09-29T00:37:08.030Z,94.4
2016-09-29T00:37:18.025Z,94.4
2016-09-29T00:37:28.021Z,94.4
2016-09-29T00:37:38.013Z,94.2
2016-09-29T00:37:48.010Z,94.3
2016-09-29T00:37:58.007Z,94.2
2016-09-29T00:38:07.999Z,94.4
2016-09-29T00:38:17.998Z,94.2
2016-09-29T00:38:27.991Z,94.3
2016-09-29T00:38:37.988Z,94.2
2016-09-29T00:38:47.983Z,94.3
2016-09-29T00:38:57.977Z,94.2
2016-09-29T00:39:07.971Z,94.2
2016-09-29T00:39:17.968Z,94.5
2016-09-29T00:39:27.962Z,94
2016-09-29T00:39:37.958Z,94.3
2016-09-29T00:39:47.953Z,93.7
2016-09-29T00:39:57.949Z,93.8
2016-09-29T00:40:07.944Z,93.9
2016-09-29T00:40:17.940Z,93.9
2016-09-29T00:40:27.935Z,93.8
2016-09-29T00:40:37.929Z,94.3
2016-09-29T00:40:47.923Z,93.9
2016-09-29T00:40:57.920Z,94.4
2016-09-29T00:41:07.916Z,94.1
2016-09-29T00:41:17.911Z,93.9
2016-09-29T00:41:27.905Z,94.3
2016-09-29T00:41:37.899Z,94
2016-09-29T00:41:47.894Z,93.9
2016-09-29T00:41:57.891Z,93.8
2016-09-29T00:42:07.886Z,93.9
2016-09-29T00:42:17.882Z,93.9
2016-09-29T00:42:27.874Z,94
2016-09-29T00:42:37.872Z,93.9
2016-09-29T00:42:47.867Z,93.9
2016-09-29T00:42:57.862Z,94.2
2016-09-29T00:43:07.858Z,93.8
2016-09-29T00:43:17.853Z,94.1
2016-09-29T00:43:27.848Z,94
2016-09-29T00:43:37.844Z,94
2016-09-29T00:43:47.838Z,94.2
2016-09-29T00:43:57.834Z,93.7
2016-09-29T00:44:07.830Z,93.7
2016-09-29T00:44:17.825Z,93.6
2016-09-29T00:44:27.820Z,93.7
2016-09-29T00:44:37.816Z,94
2016-09-29T00:44:47.810Z,93.9
2016-09-29T00:44:57.803Z,93.9
2016-09-29T00:45:07.806Z,93.8
2016-09-29T00:45:17.794Z,93.7
2016-09-29T00:45:27.789Z,93.7
2016-09-29T00:45:37.784Z,93.7
2016-09-29T00:45:47.781Z,94.3
2016-09-29T00:45:57.776Z,94.3
2016-09-29T00:46:07.771Z,93.8
2016-09-29T00:46:17.766Z,93.7
2016-09-29T00:46:27.761Z,94.1
2016-09-29T00:46:37.756Z,93.8
2016-09-29T00:46:47.753Z,93.8
2016-09-29T00:46:57.746Z,93.9
2016-09-29T00:47:07.742Z,94
2016-09-29T00:47:17.738Z,93.9
2016-09-29T00:47:27.733Z,94.1
2016-09-29T00:47:37.728Z,94.1
2016-09-29T00:47:47.723Z,93.8
2016-09-29T00:47:57.719Z,93.9
2016-09-29T00:48:07.714Z,93.8
2016-09-29T00:48:17.708Z,93.5
2016-09-29T00:48:27.704Z,93.7
2016-09-29T00:48:37.699Z,93.7
2016-09-29T00:48:47.694Z,93.7
2016-09-29T00:48:57.690Z,93.7
2016-09-29T00:49:07.684Z,94.1
2016-09-29T00:49:17.681Z,94.1
2016-09-29T00:49:27.677Z,94.2
2016-09-29T00:49:37.670Z,94
2016-09-29T00:49:47.666Z,93.9
2016-09-29T00:49:57.661Z,94.1
2016-09-29T00:50:07.656Z,94
2016-09-29T00:50:17.652Z,93.8
2016-09-29T00:50:27.647Z,93.8
2016-09-29T00:50:37.642Z,94
2016-09-29T00:50:47.637Z,93.8
2016-09-29T00:50:57.631Z,93.9
2016-09-29T00:51:07.627Z,93.8
2016-09-29T00:51:17.623Z,93.8
2016-09-29T00:51:27.617Z,93.9
2016-09-29T00:51:37.613Z,93.9
2016-09-29T00:51:47.605Z,94
2016-09-29T00:51:57.603Z,94
2016-09-29T00:52:07.599Z,93.9
2016-09-29T00:52:17.594Z,94
2016-09-29T00:52:27.589Z,94
2016-09-29T00:52:37.584Z,93.9
2016-09-29T00:52:47.578Z,94
2016-09-29T00:52:57.574Z,93.7
2016-09-29T00:53:07.569Z,93.4
2016-09-29T00:53:17.565Z,93.7
2016-09-29T00:53:27.560Z,94
2016-09-29T00:53:37.555Z,93.4
2016-09-29T00:53:47.551Z,94.2
2016-09-29T00:53:57.547Z,94
2016-09-29T00:54:07.541Z,94
2016-09-29T00:54:17.538Z,94
2016-09-29T00:54:27.530Z,93.6
2016-09-29T00:54:37.525Z,93.9
2016-09-29T00:54:47.523Z,93.7
2016-09-29T00:54:57.515Z,93.8
2016-09-29T00:55:07.510Z,93.6
2016-09-29T00:55:17.508Z,94.2
2016-09-29T00:55:27.502Z,93.8
2016-09-29T00:55:37.496Z,94.2
2016-09-29T00:55:47.492Z,94
2016-09-29T00:55:57.488Z,93.9
2016-09-29T00:56:07.484Z,93.7
2016-09-29T00:56:17.478Z,94.2
2016-09-29T00:56:27.473Z,93.9
2016-09-29T00:56:37.469Z,94.2
2016-09-29T00:56:47.463Z,94
2016-09-29T00:56:57.460Z,93.9
2016-09-29T00:57:07.454Z,93.9
2016-09-29T00:57:17.451Z,93.9
2016-09-29T00:57:27.447Z,93.8
2016-09-29T00:57:37.439Z,93.7
2016-09-29T00:57:47.437Z,94
2016-09-29T00:57:57.432Z,93.8
2016-09-29T00:58:07.426Z,93.8
2016-09-29T00:58:17.420Z,93.8
2016-09-29T00:58:27.416Z,93.5
2016-09-29T00:58:37.411Z,93.5
2016-09-29T00:58:47.406Z,93.5
2016-09-29T00:58:57.400Z,93.4
2016-09-29T00:59:07.397Z,93.4
2016-09-29T00:59:17.394Z,93.6
2016-09-29T00:59:27.386Z,93.7
2016-09-29T00:59:37.382Z,93.7
2016-09-29T00:59:47.376Z,93.7
2016-09-29T00:59:57.373Z,93.7
2016-09-29T01:00:07.369Z,93.6
2016-09-29T01:00:17.363Z,93.5
2016-09-29T01:00:27.359Z,93.6
2016-09-29T01:00:37.354Z,93.8
2016-09-29T01:00:47.355Z,93.8
2016-09-29T01:00:57.344Z,93.7
2016-09-29T01:01:07.673Z,94.2
2016-09-29T01:01:17.333Z,93.7
2016-09-29T01:01:27.330Z,93.5
2016-09-29T01:01:37.325Z,93.9
2016-09-29T01:01:47.320Z,93.5
2016-09-29T01:01:57.316Z,93.8
2016-09-29T01:02:07.311Z,93.5
2016-09-29T01:02:17.305Z,93.3
2016-09-29T01:02:27.299Z,93.3
2016-09-29T01:02:37.309Z,93.1
2016-09-29T01:02:47.291Z,93.4
2016-09-29T01:02:57.285Z,93.5
2016-09-29T01:03:07.280Z,93.6
2016-09-29T01:03:17.277Z,93.6
2016-09-29T01:03:27.272Z,93.4
2016-09-29T01:03:37.268Z,93.6
2016-09-29T01:03:47.261Z,93.6
2016-09-29T01:03:57.258Z,93.4
2016-09-29T01:04:07.252Z,93.4
2016-09-29T01:04:17.249Z,93.4
2016-09-29T01:04:27.244Z,93.8
2016-09-29T01:04:37.239Z,93.6
2016-09-29T01:04:47.233Z,93.3
2016-09-29T01:04:57.228Z,93.4
2016-09-29T01:05:07.228Z,93.4
2016-09-29T01:05:17.219Z,93.3
2016-09-29T01:05:27.216Z,93.4
2016-09-29T01:05:37.209Z,93.4
2016-09-29T01:05:47.202Z,93.4
2016-09-29T01:05:57.200Z,93.6
2016-09-29T01:06:07.195Z,93.3
2016-09-29T01:06:17.191Z,93.5
2016-09-29T01:06:27.184Z,93.1
2016-09-29T01:06:37.180Z,93.5
2016-09-29T01:06:47.176Z,93.5
2016-09-29T01:06:57.171Z,93.3
2016-09-29T01:07:07.166Z,93.1
2016-09-29T01:07:17.163Z,93.2
2016-09-29T01:07:27.157Z,93.4
2016-09-29T01:07:37.153Z,93.6
2016-09-29T01:07:47.147Z,93.6
2016-09-29T01:07:57.142Z,93.7
2016-09-29T01:08:07.138Z,93.6
2016-09-29T01:08:17.140Z,93.3
2016-09-29T01:08:27.127Z,93.6
2016-09-29T01:08:37.136Z,93.5
2016-09-29T01:08:47.117Z,93.6
2016-09-29T01:08:57.114Z,93.1
2016-09-29T01:09:07.107Z,93.4
2016-09-29T01:09:17.104Z,93.5
2016-09-29T01:09:27.099Z,93.5
2016-09-29T01:09:37.092Z,93.5
2016-09-29T01:09:47.088Z,93.6
2016-09-29T01:09:57.085Z,93.6
2016-09-29T01:10:07.080Z,93.2
2016-09-29T01:10:17.075Z,93.6
2016-09-29T01:10:27.069Z,93.3
2016-09-29T01:10:37.073Z,93.4
2016-09-29T01:10:47.065Z,93.4
2016-09-29T01:10:57.056Z,93.5
2016-09-29T01:11:07.052Z,93.6
2016-09-29T01:11:17.049Z,93.4
2016-09-29T01:11:27.041Z,93.2
2016-09-29T01:11:37.036Z,93.3
2016-09-29T01:11:47.031Z,93.2
2016-09-29T01:11:57.026Z,93.3
2016-09-29T01:12:07.023Z,93.3
2016-09-29T01:12:17.016Z,93.6
2016-09-29T01:12:27.012Z,93.5
2016-09-29T01:12:37.007Z,93.6
2016-09-29T01:12:47.003Z,93.3
2016-09-29T01:12:57.002Z,93.2
2016-09-29T01:13:06.993Z,93.6
2016-09-29T01:13:16.989Z,93.4
2016-09-29T01:13:26.984Z,93.4
2016-09-29T01:13:36.979Z,93.2
2016-09-29T01:13:46.975Z,93.6
2016-09-29T01:13:56.970Z,93.5
2016-09-29T01:14:06.966Z,93.5
2016-09-29T01:14:16.959Z,93.5
2016-09-29T01:14:26.955Z,93.5
2016-09-29T01:14:36.953Z,93.3
2016-09-29T01:14:46.945Z,93.4
2016-09-29T01:14:56.940Z,93.5
2016-09-29T01:15:06.936Z,93.5
2016-09-29T01:15:16.931Z,93.9
2016-09-29T01:15:26.926Z,94
2016-09-29T01:15:36.921Z,93.8
2016-09-29T01:15:46.917Z,93.8
2016-09-29T01:15:56.913Z,93.5
2016-09-29T01:16:06.908Z,94
2016-09-29T01:16:16.902Z,93.6
2016-09-29T01:16:26.896Z,93.3
2016-09-29T01:16:36.893Z,93.5
2016-09-29T01:16:46.888Z,93.4
2016-09-29T01:16:56.881Z,93.1
2016-09-29T01:17:06.878Z,93.4
2016-09-29T01:17:16.873Z,93.4
2016-09-29T01:17:26.868Z,93.3
2016-09-29T01:17:36.863Z,93.4
2016-09-29T01:17:46.859Z,93.5
2016-09-29T01:17:56.854Z,93.5
2016-09-29T01:18:06.850Z,93.6
2016-09-29T01:18:16.843Z,93.6
2016-09-29T01:18:26.839Z,93.5
2016-09-29T01:18:36.835Z,93.1
2016-09-29T01:18:46.831Z,93.5
2016-09-29T01:18:56.824Z,93.3
2016-09-29T01:19:06.818Z,93.6
2016-09-29T01:19:16.815Z,93.6
2016-09-29T01:19:26.809Z,93.6
2016-09-29T01:19:36.808Z,94
2016-09-29T01:19:46.800Z,93.7
2016-09-29T01:19:56.795Z,93.8
2016-09-29T01:20:06.791Z,93.7
2016-09-29T01:20:16.786Z,93.7
2016-09-29T01:20:26.782Z,93.8
2016-09-29T01:20:36.778Z,93.8
2016-09-29T01:20:46.772Z,93.7
2016-09-29T01:20:56.766Z,93.6
2016-09-29T01:21:06.761Z,93.5
2016-09-29T01:21:16.757Z,93.6
2016-09-29T01:21:26.753Z,93.7
2016-09-29T01:21:36.748Z,94
2016-09-29T01:21:46.743Z,93.7
2016-09-29T01:21:56.738Z,93.6
2016-09-29T01:22:06.732Z,93.8
2016-09-29T01:22:16.728Z,93.9
2016-09-29T01:22:26.723Z,93.8
2016-09-29T01:22:36.720Z,93.8
2016-09-29T01:22:46.716Z,94.1
2016-09-29T01:22:56.708Z,94.3
2016-09-29T01:23:06.704Z,94
2016-09-29T01:23:16.699Z,94.4
2016-09-29T01:23:26.695Z,94.6
2016-09-29T01:23:36.689Z,94.4
2016-09-29T01:23:46.685Z,94.4
2016-09-29T01:23:56.687Z,94.3
2016-09-29T01:24:06.676Z,94.3
2016-09-29T01:24:16.671Z,94.2
2016-09-29T01:24:26.667Z,94.2
2016-09-29T01:24:36.662Z,94.3
2016-09-29T01:24:46.656Z,94.2
2016-09-29T01:24:56.653Z,94.3
2016-09-29T01:25:06.659Z,94.4
2016-09-29T01:25:16.643Z,94.3
2016-09-29T01:25:26.637Z,94.5
2016-09-29T01:25:36.632Z,94.4
2016-09-29T01:25:46.626Z,94.3
2016-09-29T01:25:56.624Z,93.7
2016-09-29T01:26:06.617Z,93.9
2016-09-29T01:26:16.613Z,94
2016-09-29T01:26:26.607Z,93.7
2016-09-29T01:26:36.604Z,94.1
2016-09-29T01:26:46.600Z,93.8
2016-09-29T01:26:56.594Z,93.9
2016-09-29T01:27:06.589Z,93.9
2016-09-29T01:27:16.584Z,93.8
2016-09-29T01:27:26.578Z,94.3
2016-09-29T01:27:36.575Z,93.9
2016-09-29T01:27:46.570Z,93.7
2016-09-29T01:27:56.563Z,93.8
2016-09-29T01:28:06.562Z,93.8
2016-09-29T01:28:16.554Z,93.9
2016-09-29T01:28:26.551Z,93.9
2016-09-29T01:28:36.547Z,93.8
2016-09-29T01:28:46.540Z,93.9
2016-09-29T01:28:56.536Z,94.3
2016-09-29T01:29:06.531Z,94.3
2016-09-29T01:29:16.526Z,94.1
2016-09-29T01:29:26.522Z,94.6
2016-09-29T01:29:36.514Z,94.3
2016-09-29T01:29:46.512Z,94.2
2016-09-29T01:29:56.508Z,94.6
2016-09-29T01:30:06.503Z,94.3
2016-09-29T01:30:16.497Z,94.3
2016-09-29T01:30:26.497Z,94.2
2016-09-29T01:30:36.488Z,94.9
2016-09-29T01:30:46.482Z,94.8
2016-09-29T01:30:56.478Z,94.7
2016-09-29T01:31:06.474Z,94.9
2016-09-29T01:31:16.469Z,94.8
2016-09-29T01:31:26.464Z,94.9
2016-09-29T01:31:36.460Z,94.8
2016-09-29T01:31:46.456Z,94.8
2016-09-29T01:31:56.452Z,95.5
2016-09-29T01:32:06.447Z,95.5
2016-09-29T01:32:16.439Z,95.5
2016-09-29T01:32:26.434Z,95.3
2016-09-29T01:32:36.429Z,94.7
2016-09-29T01:32:46.427Z,94.7
2016-09-29T01:32:56.420Z,95
2016-09-29T01:33:06.415Z,94.7
2016-09-29T01:33:16.411Z,94.7
2016-09-29T01:33:26.406Z,94.7
2016-09-29T01:33:36.400Z,95
2016-09-29T01:33:46.400Z,94.7
2016-09-29T01:33:56.391Z,94.7
2016-09-29T01:34:06.386Z,94.9
2016-09-29T01:34:16.380Z,94.9
2016-09-29T01:34:26.382Z,94.7
2016-09-29T01:34:36.385Z,94.6
2016-09-29T01:34:46.368Z,94.5
2016-09-29T01:34:56.362Z,94.7
2016-09-29T01:35:06.358Z,94.9
2016-09-29T01:35:16.353Z,94.7
2016-09-29T01:35:26.349Z,95
2016-09-29T01:35:36.342Z,94.7
2016-09-29T01:35:46.338Z,95
2016-09-29T01:35:56.333Z,94.9
2016-09-29T01:36:06.329Z,94.6
2016-09-29T01:36:16.325Z,94.7
2016-09-29T01:36:26.319Z,94.9
2016-09-29T01:36:36.314Z,94.8
2016-09-29T01:36:46.310Z,94.9
2016-09-29T01:36:56.307Z,94.7
2016-09-29T01:37:06.299Z,94.6
2016-09-29T01:37:16.295Z,94.6
2016-09-29T01:37:26.291Z,94.7
2016-09-29T01:37:36.286Z,94.8
2016-09-29T01:37:46.280Z,94.9
2016-09-29T01:37:56.279Z,94.5
2016-09-29T01:38:06.271Z,95.6
2016-09-29T01:38:16.266Z,95.5
2016-09-29T01:38:26.262Z,95.5
2016-09-29T01:38:36.256Z,95.8
2016-09-29T01:38:46.252Z,95.8
2016-09-29T01:38:56.246Z,96.3
2016-09-29T01:39:06.241Z,96.1
2016-09-29T01:39:16.237Z,95.9
2016-09-29T01:39:26.233Z,96.1
2016-09-29T01:39:36.228Z,96
2016-09-29T01:39:46.222Z,96
2016-09-29T01:39:56.219Z,95.6
2016-09-29T01:40:06.213Z,95.5
2016-09-29T01:40:16.210Z,95.7
2016-09-29T01:40:26.203Z,95.6
2016-09-29T01:40:36.204Z,95.6
2016-09-29T01:40:46.193Z,95.6
2016-09-29T01:40:56.189Z,96.2
2016-09-29T01:41:06.184Z,95.9
2016-09-29T01:41:16.180Z,95.8
2016-09-29T01:41:26.176Z,96.1
2016-09-29T01:41:36.171Z,96.1
2016-09-29T01:41:46.167Z,95.7
2016-09-29T01:41:56.159Z,95.6
2016-09-29T01:42:06.156Z,95.7
2016-09-29T01:42:16.151Z,96
2016-09-29T01:42:26.146Z,96.1
2016-09-29T01:42:36.142Z,96.1
2016-09-29T01:42:46.135Z,96.2
2016-09-29T01:42:56.131Z,96.2
2016-09-29T01:43:06.127Z,96
2016-09-29T01:43:16.123Z,95.7
2016-09-29T01:43:26.116Z,95.9
2016-09-29T01:43:36.111Z,96.9
2016-09-29T01:43:46.107Z,96.8
2016-09-29T01:43:56.103Z,96.8
2016-09-29T01:44:06.098Z,96.6
2016-09-29T01:44:16.093Z,96.9
2016-09-29T01:44:26.089Z,96.1
2016-09-29T01:44:36.084Z,96
2016-09-29T01:44:46.079Z,96.1
2016-09-29T01:44:56.075Z,95.7
2016-09-29T01:45:06.068Z,96.1
2016-09-29T01:45:16.064Z,96.3
2016-09-29T01:45:26.060Z,96.1
2016-09-29T01:45:36.055Z,96.2
2016-09-29T01:45:46.050Z,96.3
2016-09-29T01:45:56.044Z,96
2016-09-29T01:46:06.040Z,96.1
2016-09-29T01:46:16.036Z,96
2016-09-29T01:46:26.032Z,96
2016-09-29T01:46:36.025Z,96
2016-09-29T01:46:46.020Z,95.8
2016-09-29T01:46:56.015Z,96
2016-09-29T01:47:06.011Z,96.1
2016-09-29T01:47:16.007Z,96.1
2016-09-29T01:47:26.002Z,96.1
2016-09-29T01:47:35.997Z,96
2016-09-29T01:47:45.994Z,95.8
2016-09-29T01:47:55.987Z,96.3
2016-09-29T01:48:05.983Z,96
2016-09-29T01:48:15.978Z,96
2016-09-29T01:48:25.972Z,96
2016-09-29T01:48:35.970Z,95.9
2016-09-29T01:48:45.963Z,96.2
2016-09-29T01:48:55.958Z,96.3
2016-09-29T01:49:05.953Z,96.8
2016-09-29T01:49:15.948Z,96.8
2016-09-29T01:49:25.944Z,96.8
2016-09-29T01:49:35.939Z,96.8
2016-09-29T01:49:45.932Z,96.6
2016-09-29T01:49:55.929Z,96.5
2016-09-29T01:50:05.924Z,97
2016-09-29T01:50:15.919Z,96.9
2016-09-29T01:50:25.915Z,96.4
2016-09-29T01:50:35.909Z,96.1
2016-09-29T01:50:45.904Z,96
2016-09-29T01:50:55.899Z,95.9
2016-09-29T01:51:05.895Z,96.1
2016-09-29T01:51:15.890Z,96
2016-09-29T01:51:25.886Z,96.3
2016-09-29T01:51:35.881Z,96.8
2016-09-29T01:51:45.876Z,96.6
2016-09-29T01:51:55.870Z,96.7
2016-09-29T01:52:05.867Z,96.5
2016-09-29T01:52:15.907Z,96.7
2016-09-29T01:52:25.856Z,96.9
2016-09-29T01:52:35.854Z,96.8
2016-09-29T01:52:45.847Z,96.6
2016-09-29T01:52:55.843Z,96.7
2016-09-29T01:53:05.837Z,96.5
2016-09-29T01:53:15.832Z,96.5
2016-09-29T01:53:25.828Z,96.4
2016-09-29T01:53:35.823Z,96.5
2016-09-29T01:53:45.818Z,96.5
2016-09-29T01:53:55.814Z,96.5
2016-09-29T01:54:05.808Z,96.6
2016-09-29T01:54:15.803Z,96.6
2016-09-29T01:54:25.799Z,96.6
2016-09-29T01:54:35.793Z,96.6
2016-09-29T01:54:45.788Z,96.6
2016-09-29T01:54:55.785Z,96.5
2016-09-29T01:55:05.780Z,96.4
2016-09-29T01:55:15.776Z,96.6
2016-09-29T01:55:25.777Z,96.5
2016-09-29T01:55:35.765Z,96.6
2016-09-29T01:55:45.760Z,96.6
2016-09-29T01:55:55.756Z,96.6
2016-09-29T01:56:05.862Z,96.7
2016-09-29T01:56:15.745Z,96.6
2016-09-29T01:56:25.739Z,96.9
2016-09-29T01:56:35.738Z,96.9
2016-09-29T01:56:45.730Z,97.1
2016-09-29T01:56:55.726Z,96.9
2016-09-29T01:57:05.720Z,96.9
2016-09-29T01:57:15.717Z,97
2016-09-29T01:57:25.713Z,96.9
2016-09-29T01:57:35.706Z,97.1
2016-09-29T01:57:45.702Z,96.9
2016-09-29T01:57:55.698Z,96.9
2016-09-29T01:58:05.691Z,96.9
2016-09-29T01:58:15.689Z,96.9
2016-09-29T01:58:25.682Z,97.3
2016-09-29T01:58:35.679Z,97.1
2016-09-29T01:58:45.673Z,97.1
2016-09-29T01:58:55.670Z,97.2
2016-09-29T01:59:05.667Z,97.1
2016-09-29T01:59:15.660Z,97.3
2016-09-29T01:59:25.655Z,97.2
2016-09-29T01:59:35.649Z,97
2016-09-29T01:59:45.645Z,97.3
2016-09-29T01:59:55.644Z,97.2
2016-09-29T02:00:05.634Z,97.3
2016-09-29T02:00:15.628Z,96.9
2016-09-29T02:00:25.626Z,97.4
2016-09-29T02:00:35.621Z,97.2
2016-09-29T02:00:45.615Z,97.3
2016-09-29T02:00:55.611Z,97.3
2016-09-29T02:01:05.605Z,97.2
2016-09-29T02:01:15.601Z,97.3
2016-09-29T02:01:25.597Z,97.1
2016-09-29T02:01:35.590Z,96.9
2016-09-29T02:01:45.587Z,97.3
2016-09-29T02:01:55.582Z,97.3
2016-09-29T02:02:05.577Z,97.3
2016-09-29T02:02:15.574Z,97.5
2016-09-29T02:02:25.567Z,97.2
2016-09-29T02:02:35.560Z,97.8
2016-09-29T02:02:45.558Z,98.1
2016-09-29T02:02:55.552Z,98
2016-09-29T02:03:05.548Z,97.8
2016-09-29T02:03:15.542Z,98
2016-09-29T02:03:25.538Z,98.2
2016-09-29T02:03:35.533Z,97.9
2016-09-29T02:03:45.528Z,98
2016-09-29T02:03:55.524Z,98.1
2016-09-29T02:04:05.520Z,98.1
2016-09-29T02:04:15.513Z,98.2
2016-09-29T02:04:25.509Z,98.3
2016-09-29T02:04:35.505Z,97.9
2016-09-29T02:04:45.500Z,98
2016-09-29T02:04:55.496Z,97.6
2016-09-29T02:05:05.489Z,97.8
2016-09-29T02:05:15.486Z,97.9
2016-09-29T02:05:25.481Z,97.8
2016-09-29T02:05:35.476Z,97.8
2016-09-29T02:05:45.471Z,97.8
2016-09-29T02:05:55.466Z,97.7
2016-09-29T02:06:05.461Z,97.9
2016-09-29T02:06:15.457Z,97.6
2016-09-29T02:06:25.450Z,97.6
2016-09-29T02:06:35.446Z,97.5
2016-09-29T02:06:45.441Z,97.6
2016-09-29T02:06:55.438Z,97.6
2016-09-29T02:07:05.433Z,97.6
2016-09-29T02:07:15.429Z,97.8
2016-09-29T02:07:25.423Z,98.3
2016-09-29T02:07:35.419Z,98.3
2016-09-29T02:07:45.412Z,98.3
2016-09-29T02:07:55.408Z,98.1
2016-09-29T02:08:05.403Z,98.3
2016-09-29T02:08:15.399Z,98.3
2016-09-29T02:08:25.393Z,98.6
2016-09-29T02:08:35.389Z,98.3
2016-09-29T02:08:45.382Z,98.1
2016-09-29T02:08:55.379Z,98.2
2016-09-29T02:09:05.379Z,98.1
2016-09-29T02:09:15.368Z,98.8
2016-09-29T02:09:25.365Z,98.8
2016-09-29T02:09:35.359Z,98.9
2016-09-29T02:09:45.355Z,98.7
2016-09-29T02:09:55.349Z,98.7
2016-09-29T02:10:05.362Z,98.8
2016-09-29T02:10:15.342Z,98.7
2016-09-29T02:10:25.335Z,98.8
2016-09-29T02:10:35.330Z,98.8
2016-09-29T02:10:45.326Z,98.3
2016-09-29T02:10:55.321Z,98
2016-09-29T02:11:05.316Z,98.2
2016-09-29T02:11:15.310Z,98.3
2016-09-29T02:11:25.307Z,98.3
2016-09-29T02:11:35.301Z,98.9
2016-09-29T02:11:45.298Z,98.7
2016-09-29T02:11:55.293Z,98.5
2016-09-29T02:12:05.289Z,98.3
2016-09-29T02:12:15.283Z,98.5
2016-09-29T02:12:25.276Z,98.5
2016-09-29T02:12:35.272Z,98.6
2016-09-29T02:12:45.267Z,98.3
2016-09-29T02:12:55.262Z,98.1
2016-09-29T02:13:05.258Z,98.1
2016-09-29T02:13:15.259Z,98.6
2016-09-29T02:13:25.249Z,98.6
2016-09-29T02:13:35.249Z,98.4
2016-09-29T02:13:45.239Z,98.7